Dong Hao — 9LU2555 — position and weather

sailwx.info

Track history (hours):
 
Tides and Currents Weather Stations Pressure Air Temp Water Temp Dewpoint Dewpoint Depression Visibility Wind Speed Wind Dir Waves Ship Positions

Dong Hao

Last reported at 2017-Sep-26 09:21 UTC. Time now 2017-Oct-16 22:30 UTC.
Position N 34°37' E 135°01'.
Warning: this ship's position is 20 days out of date.

Length 76 m; draft 4.5 m.

Type: Cargo ship. MMSI: 667001752.

Date/timePositionNaut miles runAvg speedWind from/ knotsBaromVisibWave heightAir tempDewpointWater temp
2017-Sep-26 09:21N 34°37' E 135°01'3 7.4
2017-Sep-26 09:00N 34°36' E 135°04'4 8.1
2017-Sep-26 08:30N 34°36' E 135°09'5 8.9
2017-Sep-26 08:00N 34°36' E 135°15'4 8.9
2017-Sep-26 07:30N 34°38' E 135°19'4 7.1
2017-Sep-26 07:00N 34°42' E 135°21'1 2.4
2017-Sep-26 06:29N 34°43' E 135°20'0 0.0
2017-Sep-26 05:53N 34°43' E 135°20'0 0.0
2017-Sep-26 05:23N 34°43' E 135°20'0 0.0
2017-Sep-26 04:53N 34°43' E 135°20'0 0.0
2017-Sep-26 03:35N 34°43' E 135°20'0 0.0
2017-Sep-26 03:29N 34°43' E 135°20'0 0.0
2017-Sep-26 02:59N 34°43' E 135°20'0 0.0
2017-Sep-26 02:23N 34°43' E 135°20'0 0.0
2017-Sep-26 01:59N 34°43' E 135°20'0 0.0
2017-Sep-26 01:23N 34°43' E 135°20'0 0.0
2017-Sep-26 00:59N 34°43' E 135°20'0 0.0
2017-Sep-26 00:23N 34°43' E 135°20'0 0.0
2017-Sep-25 23:59N 34°43' E 135°20'0 0.0
2017-Sep-25 23:29N 34°43' E 135°20'0 0.0
2017-Sep-25 22:59N 34°43' E 135°20'0 0.0
2017-Sep-25 22:05N 34°43' E 135°20'0 0.0
2017-Sep-25 21:53N 34°43' E 135°20'0 0.0
2017-Sep-25 21:29N 34°43' E 135°20'0 0.0
2017-Sep-25 20:59N 34°43' E 135°20'0 0.0
2017-Sep-25 20:29N 34°43' E 135°20'0 0.0
2017-Sep-25 19:59N 34°43' E 135°20'0 0.0
2017-Sep-25 19:29N 34°43' E 135°20'0 0.0
2017-Sep-25 18:59N 34°43' E 135°20'0 0.0
2017-Sep-25 18:29N 34°43' E 135°20'0 0.0
2017-Sep-25 17:59N 34°43' E 135°20'0 0.0
2017-Sep-25 17:23N 34°43' E 135°20'0 0.0
2017-Sep-25 16:59N 34°43' E 135°20'0 0.0
2017-Sep-25 16:29N 34°43' E 135°20'0 0.0
2017-Sep-25 15:59N 34°43' E 135°20'0 0.0
2017-Sep-25 15:23N 34°43' E 135°20'0 0.0
2017-Sep-25 14:59N 34°43' E 135°20'0 0.0
2017-Sep-25 13:53N 34°43' E 135°20'0 0.0
2017-Sep-25 13:29N 34°43' E 135°20'0 0.0
2017-Sep-25 12:35N 34°43' E 135°20'0 0.1
2017-Sep-25 12:29N 34°43' E 135°20'0 0.0
2017-Sep-25 11:47N 34°43' E 135°20'0 0.0
2017-Sep-25 11:29N 34°43' E 135°20'0 0.0
2017-Sep-25 10:53N 34°43' E 135°20'0 0.0
2017-Sep-25 10:23N 34°43' E 135°20'0 0.0
2017-Sep-25 09:59N 34°43' E 135°20'0 0.0
2017-Sep-25 08:47N 34°43' E 135°20'0 0.0
2017-Sep-25 08:29N 34°43' E 135°20'0 0.0
2017-Sep-25 07:59N 34°43' E 135°20'0 0.0
2017-Sep-25 07:23N 34°43' E 135°20'0 0.0
2017-Sep-25 06:35N 34°43' E 135°20'0 0.0
2017-Sep-25 06:29N 34°43' E 135°20'0 0.0
2017-Sep-25 05:59N 34°43' E 135°20'0 0.0
2017-Sep-25 05:17N 34°43' E 135°20'0 0.0
2017-Sep-25 04:47N 34°43' E 135°20'0 0.0
2017-Sep-25 03:35N 34°43' E 135°20'0 0.0
2017-Sep-25 03:29N 34°43' E 135°20'0 0.0
2017-Sep-25 02:59N 34°43' E 135°20'0 0.0
2017-Sep-25 02:17N 34°43' E 135°20'0 0.0
2017-Sep-25 01:59N 34°43' E 135°20'0 0.0
2017-Sep-25 01:29N 34°43' E 135°20'0 0.0
2017-Sep-24 23:47N 34°43' E 135°20'0 0.0
2017-Sep-24 23:29N 34°43' E 135°20'0 0.0
2017-Sep-24 22:41N 34°43' E 135°20'0 0.0
2017-Sep-24 22:23N 34°43' E 135°20'0 0.0
2017-Sep-24 21:59N 34°43' E 135°20'1 1.5
2017-Sep-24 21:31N 34°42' E 135°21'2 4.5
2017-Sep-24 21:01N 34°40' E 135°20'0 0.1
2017-Sep-24 20:30N 34°40' E 135°20'0 0.0
2017-Sep-24 19:54N 34°40' E 135°20'0 0.0
2017-Sep-24 19:30N 34°40' E 135°20'0 0.0
2017-Sep-24 19:00N 34°40' E 135°20'0 0.0
2017-Sep-24 18:18N 34°40' E 135°20'0 0.0
2017-Sep-24 18:00N 34°40' E 135°20'0 0.0
2017-Sep-24 17:30N 34°40' E 135°20'0 0.0
2017-Sep-24 17:00N 34°40' E 135°20'0 0.0
2017-Sep-24 16:30N 34°40' E 135°20'0 0.0
2017-Sep-24 16:00N 34°40' E 135°20'0 0.0
2017-Sep-24 15:30N 34°40' E 135°20'0 0.0
2017-Sep-24 15:00N 34°40' E 135°20'0 0.0
2017-Sep-24 14:24N 34°40' E 135°20'0 0.0
2017-Sep-24 14:00N 34°40' E 135°20'0 0.0
2017-Sep-24 13:30N 34°40' E 135°20'0 0.0
2017-Sep-24 13:00N 34°40' E 135°20'0 0.1
2017-Sep-24 12:30N 34°40' E 135°20'0 0.1
2017-Sep-24 12:00N 34°40' E 135°20'0 0.0
2017-Sep-24 11:30N 34°40' E 135°20'0 0.0
2017-Sep-24 11:00N 34°40' E 135°20'0 0.1
2017-Sep-24 10:30N 34°40' E 135°20'0 0.1
2017-Sep-24 10:00N 34°40' E 135°20'0 0.0
2017-Sep-24 09:30N 34°40' E 135°20'0 0.0
2017-Sep-24 08:48N 34°40' E 135°20'0 0.0
2017-Sep-24 08:30N 34°40' E 135°20'0 0.0
2017-Sep-24 07:54N 34°40' E 135°20'0 0.0
2017-Sep-24 07:30N 34°40' E 135°20'0 0.0
2017-Sep-24 06:54N 34°40' E 135°20'0 0.0
2017-Sep-24 06:30N 34°40' E 135°20'0 0.0
2017-Sep-24 06:00N 34°40' E 135°20'0 0.0
2017-Sep-24 05:24N 34°40' E 135°20'0 0.0
2017-Sep-24 05:00N 34°40' E 135°20'0 0.0
2017-Sep-24 04:30N 34°40' E 135°20'0 0.1
2017-Sep-24 04:00N 34°40' E 135°20'0 0.0
2017-Sep-24 03:30N 34°40' E 135°20'0 0.1
2017-Sep-24 03:00N 34°40' E 135°20'0 0.0
2017-Sep-24 02:30N 34°40' E 135°20'0 0.0
2017-Sep-24 02:00N 34°40' E 135°20'0 0.0
2017-Sep-24 01:30N 34°40' E 135°20'0 0.0
2017-Sep-24 00:54N 34°40' E 135°20'0 0.0
2017-Sep-24 00:30N 34°40' E 135°20'0 0.0
2017-Sep-24 00:00N 34°40' E 135°20'0 0.0
2017-Sep-23 23:30N 34°40' E 135°20'0 0.0
2017-Sep-23 22:30N 34°40' E 135°20'0 0.0
2017-Sep-23 22:00N 34°40' E 135°20'0 0.0
2017-Sep-23 21:30N 34°40' E 135°20'0 0.0
2017-Sep-23 21:00N 34°40' E 135°20'0 0.0
2017-Sep-23 20:30N 34°40' E 135°20'0 0.0
2017-Sep-23 19:42N 34°40' E 135°20'0 0.0
2017-Sep-22 01:55N 34°40' E 135°20'0 0.0
2017-Sep-22 01:25N 34°40' E 135°20'0 0.0
2017-Sep-22 00:55N 34°40' E 135°20'0 0.0
2017-Sep-22 00:25N 34°40' E 135°20'0 0.0
2017-Sep-21 23:49N 34°40' E 135°20'0 0.0
2017-Sep-21 23:25N 34°40' E 135°20'0 0.0
2017-Sep-21 22:49N 34°40' E 135°20'0 0.0
2017-Sep-21 22:25N 34°40' E 135°20'0 0.0
2017-Sep-21 21:55N 34°40' E 135°20'0 0.0
2017-Sep-21 21:19N 34°40' E 135°20'0 0.0
2017-Sep-21 20:49N 34°40' E 135°20'0 0.0
2017-Sep-21 20:25N 34°40' E 135°20'0 0.0
2017-Sep-21 19:55N 34°40' E 135°20'0 0.0
2017-Sep-21 19:25N 34°40' E 135°20'0 0.0
2017-Sep-21 18:55N 34°40' E 135°20'0 0.0
2017-Sep-21 18:25N 34°40' E 135°20'0 0.0
2017-Sep-21 17:49N 34°40' E 135°20'0 0.0
2017-Sep-21 17:25N 34°40' E 135°20'0 0.0
2017-Sep-21 16:55N 34°40' E 135°20'0 0.0
2017-Sep-21 16:25N 34°40' E 135°20'0 0.0
2017-Sep-21 15:55N 34°40' E 135°20'0 0.0
2017-Sep-21 15:25N 34°40' E 135°20'0 0.0
2017-Sep-21 14:55N 34°40' E 135°20'0 0.0
2017-Sep-21 14:25N 34°40' E 135°20'0 0.0
2017-Sep-21 13:55N 34°40' E 135°20'0 0.0
2017-Sep-21 13:25N 34°40' E 135°20'0 0.0
2017-Sep-21 12:55N 34°40' E 135°20'0 0.0
2017-Sep-21 12:25N 34°40' E 135°20'0 0.0
2017-Sep-21 11:55N 34°40' E 135°20'0 0.0
2017-Sep-21 11:19N 34°40' E 135°20'0 0.0
2017-Sep-21 10:49N 34°40' E 135°20'0 0.1
2017-Sep-21 10:25N 34°40' E 135°20'0 0.0
2017-Sep-21 09:43N 34°40' E 135°20'0 0.0
2017-Sep-21 09:25N 34°40' E 135°20'0 0.1
2017-Sep-21 08:37N 34°40' E 135°20'0 0.0
2017-Sep-21 08:25N 34°40' E 135°20'0 0.0
2017-Sep-21 07:31N 34°40' E 135°20'0 0.0
2017-Sep-21 07:25N 34°40' E 135°20'0 0.0
2017-Sep-21 06:43N 34°40' E 135°20'0 0.0
2017-Sep-21 06:25N 34°40' E 135°20'0 0.1
2017-Sep-21 05:43N 34°40' E 135°20'0 0.0
2017-Sep-21 05:25N 34°40' E 135°20'0 0.0
2017-Sep-21 04:55N 34°40' E 135°20'0 0.0
2017-Sep-21 04:19N 34°40' E 135°20'0 0.1
2017-Sep-21 03:43N 34°40' E 135°20'0 0.1
2017-Sep-21 03:19N 34°40' E 135°20'0 0.0
2017-Sep-21 02:55N 34°40' E 135°20'0 0.1
2017-Sep-21 02:25N 34°40' E 135°20'0 0.0
2017-Sep-21 01:55N 34°40' E 135°20'0 0.1
2017-Sep-21 01:19N 34°40' E 135°20'2 6.9
2017-Sep-21 01:00N 34°39' E 135°18'5 9.6
2017-Sep-21 00:30N 34°36' E 135°13'510.1
2017-Sep-20 23:59N 34°35' E 135°07'4 7.9
2017-Sep-20 23:28N 34°36' E 135°02'  
Track history (hours):
 
Tides and Currents Weather Stations Pressure Air Temp Water Temp Dewpoint Dewpoint Depression Visibility Wind Speed Wind Dir Waves Ship Positions

Dong Hao

Last reported at 2017-Sep-26 09:21 UTC. Time now 2017-Oct-16 22:30 UTC.
Position N 34°37' E 135°01'.
Warning: this ship's position is 20 days out of date.

Length 76 m; draft 4.5 m.

Type: Cargo ship. MMSI: 667001752.

Date/timePositionNaut miles runAvg speedWind from/ knotsBaromVisibWave heightAir tempDewpointWater temp
2017-Sep-26 09:21N 34°37' E 135°01'3 7.4
2017-Sep-26 09:00N 34°36' E 135°04'4 8.1
2017-Sep-26 08:30N 34°36' E 135°09'5 8.9
2017-Sep-26 08:00N 34°36' E 135°15'4 8.9
2017-Sep-26 07:30N 34°38' E 135°19'4 7.1
2017-Sep-26 07:00N 34°42' E 135°21'1 2.4
2017-Sep-26 06:29N 34°43' E 135°20'0 0.0
2017-Sep-26 05:53N 34°43' E 135°20'0 0.0
2017-Sep-26 05:23N 34°43' E 135°20'0 0.0
2017-Sep-26 04:53N 34°43' E 135°20'0 0.0
2017-Sep-26 03:35N 34°43' E 135°20'0 0.0
2017-Sep-26 03:29N 34°43' E 135°20'0 0.0
2017-Sep-26 02:59N 34°43' E 135°20'0 0.0
2017-Sep-26 02:23N 34°43' E 135°20'0 0.0
2017-Sep-26 01:59N 34°43' E 135°20'0 0.0
2017-Sep-26 01:23N 34°43' E 135°20'0 0.0
2017-Sep-26 00:59N 34°43' E 135°20'0 0.0
2017-Sep-26 00:23N 34°43' E 135°20'0 0.0
2017-Sep-25 23:59N 34°43' E 135°20'0 0.0
2017-Sep-25 23:29N 34°43' E 135°20'0 0.0
2017-Sep-25 22:59N 34°43' E 135°20'0 0.0
2017-Sep-25 22:05N 34°43' E 135°20'0 0.0
2017-Sep-25 21:53N 34°43' E 135°20'0 0.0
2017-Sep-25 21:29N 34°43' E 135°20'0 0.0
2017-Sep-25 20:59N 34°43' E 135°20'0 0.0
2017-Sep-25 20:29N 34°43' E 135°20'0 0.0
2017-Sep-25 19:59N 34°43' E 135°20'0 0.0
2017-Sep-25 19:29N 34°43' E 135°20'0 0.0
2017-Sep-25 18:59N 34°43' E 135°20'0 0.0
2017-Sep-25 18:29N 34°43' E 135°20'0 0.0
2017-Sep-25 17:59N 34°43' E 135°20'0 0.0
2017-Sep-25 17:23N 34°43' E 135°20'0 0.0
2017-Sep-25 16:59N 34°43' E 135°20'0 0.0
2017-Sep-25 16:29N 34°43' E 135°20'0 0.0
2017-Sep-25 15:59N 34°43' E 135°20'0 0.0
2017-Sep-25 15:23N 34°43' E 135°20'0 0.0
2017-Sep-25 14:59N 34°43' E 135°20'0 0.0
2017-Sep-25 13:53N 34°43' E 135°20'0 0.0
2017-Sep-25 13:29N 34°43' E 135°20'0 0.0
2017-Sep-25 12:35N 34°43' E 135°20'0 0.1
2017-Sep-25 12:29N 34°43' E 135°20'0 0.0
2017-Sep-25 11:47N 34°43' E 135°20'0 0.0
2017-Sep-25 11:29N 34°43' E 135°20'0 0.0
2017-Sep-25 10:53N 34°43' E 135°20'0 0.0
2017-Sep-25 10:23N 34°43' E 135°20'0 0.0
2017-Sep-25 09:59N 34°43' E 135°20'0 0.0
2017-Sep-25 08:47N 34°43' E 135°20'0 0.0
2017-Sep-25 08:29N 34°43' E 135°20'0 0.0
2017-Sep-25 07:59N 34°43' E 135°20'0 0.0
2017-Sep-25 07:23N 34°43' E 135°20'0 0.0
2017-Sep-25 06:35N 34°43' E 135°20'0 0.0
2017-Sep-25 06:29N 34°43' E 135°20'0 0.0
2017-Sep-25 05:59N 34°43' E 135°20'0 0.0
2017-Sep-25 05:17N 34°43' E 135°20'0 0.0
2017-Sep-25 04:47N 34°43' E 135°20'0 0.0
2017-Sep-25 03:35N 34°43' E 135°20'0 0.0
2017-Sep-25 03:29N 34°43' E 135°20'0 0.0
2017-Sep-25 02:59N 34°43' E 135°20'0 0.0
2017-Sep-25 02:17N 34°43' E 135°20'0 0.0
2017-Sep-25 01:59N 34°43' E 135°20'0 0.0
2017-Sep-25 01:29N 34°43' E 135°20'0 0.0
2017-Sep-24 23:47N 34°43' E 135°20'0 0.0
2017-Sep-24 23:29N 34°43' E 135°20'0 0.0
2017-Sep-24 22:41N 34°43' E 135°20'0 0.0
2017-Sep-24 22:23N 34°43' E 135°20'0 0.0
2017-Sep-24 21:59N 34°43' E 135°20'1 1.5
2017-Sep-24 21:31N 34°42' E 135°21'2 4.5
2017-Sep-24 21:01N 34°40' E 135°20'0 0.1
2017-Sep-24 20:30N 34°40' E 135°20'0 0.0
2017-Sep-24 19:54N 34°40' E 135°20'0 0.0
2017-Sep-24 19:30N 34°40' E 135°20'0 0.0
2017-Sep-24 19:00N 34°40' E 135°20'0 0.0
2017-Sep-24 18:18N 34°40' E 135°20'0 0.0
2017-Sep-24 18:00N 34°40' E 135°20'0 0.0
2017-Sep-24 17:30N 34°40' E 135°20'0 0.0
2017-Sep-24 17:00N 34°40' E 135°20'0 0.0
2017-Sep-24 16:30N 34°40' E 135°20'0 0.0
2017-Sep-24 16:00N 34°40' E 135°20'0 0.0
2017-Sep-24 15:30N 34°40' E 135°20'0 0.0
2017-Sep-24 15:00N 34°40' E 135°20'0 0.0
2017-Sep-24 14:24N 34°40' E 135°20'0 0.0
2017-Sep-24 14:00N 34°40' E 135°20'0 0.0
2017-Sep-24 13:30N 34°40' E 135°20'0 0.0
2017-Sep-24 13:00N 34°40' E 135°20'0 0.1
2017-Sep-24 12:30N 34°40' E 135°20'0 0.1
2017-Sep-24 12:00N 34°40' E 135°20'0 0.0
2017-Sep-24 11:30N 34°40' E 135°20'0 0.0
2017-Sep-24 11:00N 34°40' E 135°20'0 0.1
2017-Sep-24 10:30N 34°40' E 135°20'0 0.1
2017-Sep-24 10:00N 34°40' E 135°20'0 0.0
2017-Sep-24 09:30N 34°40' E 135°20'0 0.0
2017-Sep-24 08:48N 34°40' E 135°20'0 0.0
2017-Sep-24 08:30N 34°40' E 135°20'0 0.0
2017-Sep-24 07:54N 34°40' E 135°20'0 0.0
2017-Sep-24 07:30N 34°40' E 135°20'0 0.0
2017-Sep-24 06:54N 34°40' E 135°20'0 0.0
2017-Sep-24 06:30N 34°40' E 135°20'0 0.0
2017-Sep-24 06:00N 34°40' E 135°20'0 0.0
2017-Sep-24 05:24N 34°40' E 135°20'0 0.0
2017-Sep-24 05:00N 34°40' E 135°20'0 0.0
2017-Sep-24 04:30N 34°40' E 135°20'0 0.1
2017-Sep-24 04:00N 34°40' E 135°20'0 0.0
2017-Sep-24 03:30N 34°40' E 135°20'0 0.1
2017-Sep-24 03:00N 34°40' E 135°20'0 0.0
2017-Sep-24 02:30N 34°40' E 135°20'0 0.0
2017-Sep-24 02:00N 34°40' E 135°20'0 0.0
2017-Sep-24 01:30N 34°40' E 135°20'0 0.0
2017-Sep-24 00:54N 34°40' E 135°20'0 0.0
2017-Sep-24 00:30N 34°40' E 135°20'0 0.0
2017-Sep-24 00:00N 34°40' E 135°20'0 0.0
2017-Sep-23 23:30N 34°40' E 135°20'0 0.0
2017-Sep-23 22:30N 34°40' E 135°20'0 0.0
2017-Sep-23 22:00N 34°40' E 135°20'0 0.0
2017-Sep-23 21:30N 34°40' E 135°20'0 0.0
2017-Sep-23 21:00N 34°40' E 135°20'0 0.0
2017-Sep-23 20:30N 34°40' E 135°20'0 0.0
2017-Sep-23 19:42N 34°40' E 135°20'0 0.0
2017-Sep-22 01:55N 34°40' E 135°20'0 0.0
2017-Sep-22 01:25N 34°40' E 135°20'0 0.0
2017-Sep-22 00:55N 34°40' E 135°20'0 0.0
2017-Sep-22 00:25N 34°40' E 135°20'0 0.0
2017-Sep-21 23:49N 34°40' E 135°20'0 0.0
2017-Sep-21 23:25N 34°40' E 135°20'0 0.0
2017-Sep-21 22:49N 34°40' E 135°20'0 0.0
2017-Sep-21 22:25N 34°40' E 135°20'0 0.0
2017-Sep-21 21:55N 34°40' E 135°20'0 0.0
2017-Sep-21 21:19N 34°40' E 135°20'0 0.0
2017-Sep-21 20:49N 34°40' E 135°20'0 0.0
2017-Sep-21 20:25N 34°40' E 135°20'0 0.0
2017-Sep-21 19:55N 34°40' E 135°20'0 0.0
2017-Sep-21 19:25N 34°40' E 135°20'0 0.0
2017-Sep-21 18:55N 34°40' E 135°20'0 0.0
2017-Sep-21 18:25N 34°40' E 135°20'0 0.0
2017-Sep-21 17:49N 34°40' E 135°20'0 0.0
2017-Sep-21 17:25N 34°40' E 135°20'0 0.0
2017-Sep-21 16:55N 34°40' E 135°20'0 0.0
2017-Sep-21 16:25N 34°40' E 135°20'0 0.0
2017-Sep-21 15:55N 34°40' E 135°20'0 0.0
2017-Sep-21 15:25N 34°40' E 135°20'0 0.0
2017-Sep-21 14:55N 34°40' E 135°20'0 0.0
2017-Sep-21 14:25N 34°40' E 135°20'0 0.0
2017-Sep-21 13:55N 34°40' E 135°20'0 0.0
2017-Sep-21 13:25N 34°40' E 135°20'0 0.0
2017-Sep-21 12:55N 34°40' E 135°20'0 0.0
2017-Sep-21 12:25N 34°40' E 135°20'0 0.0
2017-Sep-21 11:55N 34°40' E 135°20'0 0.0
2017-Sep-21 11:19N 34°40' E 135°20'0 0.0
2017-Sep-21 10:49N 34°40' E 135°20'0 0.1
2017-Sep-21 10:25N 34°40' E 135°20'0 0.0
2017-Sep-21 09:43N 34°40' E 135°20'0 0.0
2017-Sep-21 09:25N 34°40' E 135°20'0 0.1
2017-Sep-21 08:37N 34°40' E 135°20'0 0.0
2017-Sep-21 08:25N 34°40' E 135°20'0 0.0
2017-Sep-21 07:31N 34°40' E 135°20'0 0.0
2017-Sep-21 07:25N 34°40' E 135°20'0 0.0
2017-Sep-21 06:43N 34°40' E 135°20'0 0.0
2017-Sep-21 06:25N 34°40' E 135°20'0 0.1
2017-Sep-21 05:43N 34°40' E 135°20'0 0.0
2017-Sep-21 05:25N 34°40' E 135°20'0 0.0
2017-Sep-21 04:55N 34°40' E 135°20'0 0.0
2017-Sep-21 04:19N 34°40' E 135°20'0 0.1
2017-Sep-21 03:43N 34°40' E 135°20'0 0.1
2017-Sep-21 03:19N 34°40' E 135°20'0 0.0
2017-Sep-21 02:55N 34°40' E 135°20'0 0.1
2017-Sep-21 02:25N 34°40' E 135°20'0 0.0
2017-Sep-21 01:55N 34°40' E 135°20'0 0.1
2017-Sep-21 01:19N 34°40' E 135°20'2 6.9
2017-Sep-21 01:00N 34°39' E 135°18'5 9.6
2017-Sep-21 00:30N 34°36' E 135°13'510.1
2017-Sep-20 23:59N 34°35' E 135°07'4 7.9
2017-Sep-20 23:28N 34°36' E 135°02'  

Dump ship's entire track history